Latest Weather Observations for Melbourne (Olympic Park)

IDV60901

Issued at 4:01 am EDT Saturday 4 April 2020 (issued every 10 minutes, with the page automatically refreshed every 10 minutes)

About weather observations | Map of Melbourne area stations | Latest observations for Melbourne area | Other Formats
Station Details ID: 086338 Name: MELBOURNE (OLYMPIC PARK) Lat: -37.83 Lon: 144.98 Height: 7.53 m
Data from the previous 72 hours. | See also: Recent months at Melbourne (Olympic Park)
Date/Time
EDT
Temp
°C
App
Temp
°C
Dew
Point
°C
Rel
Hum
%
Delta-T
°C
Wind Press
QNH
hPa
Press
MSL
hPa
Rain since
9am
mm
Dir  Spd
km/h
Gust
km/h
Spd
kts
Gust
kts
04/04:00am 13.0 13.9 13.0 100 0.0 CALM 0 0 0 0 996.2 996.2 33.6
04/03:30am 13.1 14.1 13.1 100 0.0 CALM 0 0 0 0 996.3 996.3 33.2
04/03:27am 13.1 14.1 13.1 100 0.0 CALM 0 0 0 0 996.3 996.3 33.2
04/03:00am 13.2 13.8 13.0 99 0.1 W 2 7 1 4 996.8 996.8 31.4
04/02:30am 13.3 13.8 12.8 97 0.3 W 2 6 1 3 997.0 997.0 27.4
04/02:00am 13.4 13.5 12.8 96 0.3 W 4 9 2 5 997.3 997.3 24.2
04/01:30am 13.4 12.5 12.6 95 0.4 WSW 9 20 5 11 997.5 997.5 21.2
04/01:00am 13.7 12.6 13.1 96 0.3 SW 11 26 6 14 997.4 997.4 17.8
04/12:35am 15.6 15.2 15.1 97 0.3 SW 11 24 6 13 997.4 997.4 13.0
04/12:34am 15.6 15.2 15.1 97 0.3 WSW 11 24 6 13 997.5 997.5 12.8
04/12:30am 16.5 16.5 16.3 99 0.1 WNW 11 20 6 11 997.3 997.3 12.0
04/12:05am 16.6 16.2 16.3 98 0.2 N 13 22 7 12 996.8 996.8 9.2
04/12:00am 16.6 16.2 16.3 98 0.2 N 13 22 7 12 996.8 996.8 8.4
 
Date/Time
EDT
Temp
°C
App
Temp
°C
Dew
Point
°C
Rel
Hum
%
Delta-T
°C
Wind Press
QNH
hPa
Press
MSL
hPa
Rain since
9am
mm
Dir  Spd
km/h
Gust
km/h
Spd
kts
Gust
kts
03/11:30pm 16.7 16.3 16.1 96 0.4 NNE 13 22 7 12 997.0 997.0 6.2
03/11:00pm 16.9 16.0 15.8 93 0.7 N 15 24 8 13 997.4 997.4 3.8
03/10:30pm 17.6 15.7 15.2 86 1.4 NNE 19 32 10 17 997.8 997.8 1.4
03/10:00pm 18.5 17.1 14.6 78 2.3 NNE 15 20 8 11 997.8 997.8 0.2
03/09:30pm 19.0 16.9 13.6 71 3.1 NNE 17 24 9 13 997.8 997.8 0.0
03/09:00pm 19.4 17.4 12.7 65 3.8 NNE 15 22 8 12 998.1 998.1 0.0
03/08:30pm 19.5 17.1 12.8 65 3.8 NNE 17 32 9 17 998.2 998.2 0.0
03/08:00pm 19.6 17.1 12.4 63 4.1 N 17 32 9 17 998.8 998.8 0.0
03/07:30pm 19.5 17.5 11.5 60 4.4 NNE 13 19 7 10 998.9 998.9 0.0
03/07:00pm 20.1 18.4 12.6 62 4.2 NNE 13 32 7 17 998.8 998.8 0.0
03/06:30pm 20.4 18.5 13.1 63 4.2 N 15 20 8 11 999.0 999.0 0.0
03/06:00pm 20.8 18.5 13.0 61 4.5 NNE 17 33 9 18 999.3 999.3 0.0
03/05:30pm 21.0 18.3 12.9 60 4.6 N 19 33 10 18 999.8 999.8 0.0
03/05:00pm 21.3 18.6 13.0 59 4.8 N 19 30 10 16 1000.1 1000.1 0.0
03/04:30pm 21.7 18.4 12.8 57 5.1 N 22 35 12 19 1000.5 1000.5 0.0
03/04:00pm 22.0 18.4 13.1 57 5.1 N 24 37 13 20 1000.8 1000.8 0.0
03/03:30pm 22.7 19.4 12.9 54 5.6 N 22 39 12 21 1000.8 1000.8 0.0
03/03:00pm 22.5 19.3 13.0 55 5.5 N 22 35 12 19 1001.4 1001.4 0.0
03/02:30pm 22.0 18.1 13.4 58 5.0 N 26 37 14 20 1002.0 1002.0 0.0
03/02:00pm 21.2 18.0 13.1 60 4.6 N 22 35 12 19 1002.8 1002.8 0.0
03/01:30pm 21.1 18.6 13.5 62 4.4 N 19 33 10 18 1003.3 1003.3 0.0
03/01:00pm 21.2 18.7 14.1 64 4.1 N 20 33 11 18 1003.6 1003.6 0.0
03/12:30pm 20.7 17.2 14.4 67 3.7 N 26 46 14 25 1004.4 1004.4 0.0
03/12:24pm 20.4 16.4 14.1 67 3.6 N 28 46 15 25 1004.5 1004.5 0.0
03/12:00pm 20.0 17.8 14.4 70 3.3 N 19 43 10 23 1004.9 1004.9 0.0
03/11:30am 18.8 14.7 13.9 73 2.8 N 28 41 15 22 1005.0 1005.0 0.0
03/11:00am 19.1 17.4 14.8 76 2.5 N 17 32 9 17 1005.4 1005.4 0.0
03/10:30am 18.2 16.4 14.5 79 2.1 N 17 28 9 15 1005.5 1005.5 0.0
03/10:00am 16.8 16.0 15.2 90 0.9 NNE 13 19 7 10 1005.7 1005.7 0.0
03/09:30am 15.4 14.7 14.4 94 0.6 N 11 17 6 9 1005.7 1005.7 0.0
03/09:00am 14.6 14.3 14.3 98 0.2 N 9 15 5 8 1005.7 1005.7 16.0
03/08:30am 14.0 13.6 14.0 100 0.0 NNE 9 15 5 8 1005.9 1005.9 -
03/08:00am 13.8 13.3 13.8 100 0.0 N 9 15 5 8 1006.0 1006.0 -
03/07:30am 13.9 13.8 13.9 100 0.0 NNE 7 11 4 6 1006.2 1006.2 -
03/07:00am 14.1 13.3 14.1 100 0.0 NNE 11 15 6 8 1006.4 1006.4 -
03/06:30am 14.3 14.3 14.3 100 0.0 NNE 7 9 4 5 1006.6 1006.6 -
03/06:00am 14.3 14.3 14.3 100 0.0 NNE 7 11 4 6 1006.6 1006.6 -
03/05:30am 14.2 14.2 14.2 100 0.0 NNE 7 11 4 6 1006.7 1006.7 -
03/05:00am 14.0 14.1 14.0 100 0.0 N 6 9 3 5 1006.8 1006.8 -
03/04:30am 14.3 14.3 14.3 100 0.0 N 7 11 4 6 1007.0 1007.0 -
03/04:00am 14.6 14.8 14.6 100 0.0 N 7 9 4 5 1007.2 1007.2 -
03/03:30am 14.6 14.4 14.6 100 0.0 N 9 13 5 7 1007.5 1007.5 -
03/03:00am 14.9 14.8 14.9 100 0.0 N 9 11 5 6 1007.9 1007.9 0.8
03/02:30am 15.1 15.1 15.1 100 0.0 N 9 13 5 7 1008.2 1008.2 -
03/02:00am 15.2 15.6 15.2 100 0.0 N 7 9 4 5 1008.1 1008.1 -
03/01:30am 15.4 16.4 15.4 100 0.0 N 4 7 2 4 1008.2 1008.2 -
03/01:00am 15.3 16.3 15.3 100 0.0 NNE 4 7 2 4 1008.2 1008.2 -
03/12:30am 15.6 17.1 15.6 100 0.0 NNW 2 6 1 3 1008.4 1008.4 -
03/12:00am 15.9 16.7 15.9 100 0.0 NNW 6 9 3 5 1008.6 1008.6 -
 
Date/Time
EDT
Temp
°C
App
Temp
°C
Dew
Point
°C
Rel
Hum
%
Delta-T
°C
Wind Press
QNH
hPa
Press
MSL
hPa
Rain since
9am
mm
Dir  Spd
km/h
Gust
km/h
Spd
kts
Gust
kts
02/11:30pm 16.0 16.7 16.0 100 0.0 N 7 9 4 5 1008.6 1008.6 -
02/11:00pm 16.3 18.0 16.3 100 0.0 NNW 2 6 1 3 1009.0 1009.0 -
02/10:30pm 16.3 18.4 16.3 100 0.0 CALM 0 0 0 0 1008.8 1008.8 -
02/10:00pm 16.2 18.3 16.2 100 0.0 CALM 0 0 0 0 1008.9 1008.9 -
02/09:41pm 15.9 17.5 15.9 100 0.0 SW 2 6 1 3 1008.8 1008.8 -
02/09:30pm 15.9 17.9 15.9 100 0.0 CALM 0 6 0 3 1008.7 1008.7 -
02/09:00pm 16.0 16.9 16.0 100 0.0 W 6 13 3 7 1008.6 1008.6 15.0
02/08:30pm 16.2 17.1 16.2 100 0.0 WSW 6 15 3 8 1008.2 1008.2 -
02/08:22pm 16.2 17.5 16.2 100 0.0 W 4 9 2 5 1008.0 1008.0 -
02/08:08pm 16.2 18.3 16.2 100 0.0 CALM 0 0 0 0 1007.9 1007.9 -
02/08:00pm 16.1 17.4 16.1 100 0.0 SW 4 7 2 4 1007.7 1007.7 -
02/07:47pm 16.1 17.4 16.1 100 0.0 WSW 4 9 2 5 1007.6 1007.6 -
02/07:35pm 16.1 17.0 16.1 100 0.0 SW 6 11 3 6 1007.4 1007.4 -
02/07:30pm 16.0 17.2 16.0 100 0.0 WSW 4 11 2 6 1007.3 1007.3 -
02/07:00pm 16.1 16.4 16.1 100 0.0 SSW 9 20 5 11 1007.1 1007.1 -
02/06:43pm 16.1 17.8 16.1 100 0.0 SSW 2 13 1 7 1006.9 1006.9 -
02/06:30pm 16.3 17.3 16.3 100 0.0 SSE 6 9 3 5 1006.6 1006.6 -
02/06:00pm 16.5 17.6 16.5 100 0.0 SW 6 11 3 6 1006.4 1006.4 -
02/05:33pm 16.5 17.6 16.5 100 0.0 SSW 6 11 3 6 1006.1 1006.1 -
02/05:30pm 16.6 17.7 16.6 100 0.0 SSW 6 11 3 6 1006.1 1006.1 -
02/05:00pm 16.8 17.4 16.8 100 0.0 SSW 9 15 5 8 1005.9 1005.9 -
02/04:30pm 16.9 18.0 16.7 99 0.1 S 6 11 3 6 1005.8 1005.8 -
02/04:14pm 16.9 18.0 16.7 99 0.1 SW 6 11 3 6 1005.7 1005.7 -
02/04:00pm 17.0 18.9 16.7 98 0.2 SW 2 11 1 6 1005.7 1005.7 -
02/03:39pm 17.2 18.1 16.2 94 0.6 SSW 6 15 3 8 1005.6 1005.6 -
02/03:30pm 17.5 18.5 16.4 93 0.7 SW 6 17 3 9 1005.7 1005.7 -
02/03:24pm 17.7 18.5 16.4 92 0.8 SW 7 17 4 9 1005.6 1005.6 -
02/03:05pm 18.6 20.3 16.2 86 1.4 WSW 2 7 1 4 1005.5 1005.5 -
02/03:00pm 18.7 20.0 16.1 85 1.6 WSW 4 13 2 7 1005.5 1005.5 0.0
02/02:30pm 20.1 19.5 14.5 70 3.3 NW 11 20 6 11 1005.5 1005.5 0.0
02/02:00pm 20.3 19.1 15.1 72 3.1 NNW 15 30 8 16 1005.8 1005.8 0.0
02/01:30pm 19.9 19.9 15.1 74 2.8 NW 9 19 5 10 1006.1 1006.1 0.0
02/01:00pm 19.5 19.7 15.8 79 2.2 NW 9 13 5 7 1006.4 1006.4 0.0
02/12:30pm 19.3 20.1 15.8 80 2.1 NNW 6 13 3 7 1006.7 1006.7 0.0
02/12:00pm 19.0 20.1 16.6 86 1.4 WNW 6 9 3 5 1007.2 1007.2 0.0
02/11:30am 17.6 18.2 15.4 87 1.3 NNW 6 9 3 5 1007.5 1007.5 0.0
02/11:00am 16.9 17.5 15.4 91 0.9 NNW 6 9 3 5 1007.7 1007.7 0.0
02/10:30am 16.5 17.1 15.4 93 0.6 NNW 6 13 3 7 1007.9 1007.9 0.0
02/10:00am 16.4 17.0 15.4 94 0.6 N 6 9 3 5 1008.0 1008.0 0.0
02/09:30am 15.8 17.6 15.5 98 0.2 CALM 0 0 0 0 1008.2 1008.2 0.0
02/09:00am 15.9 17.7 15.6 98 0.2 CALM 0 0 0 0 1008.3 1008.3 23.0
02/08:30am 15.4 16.7 15.1 98 0.2 NNE 2 7 1 4 1008.2 1008.2 23.0
02/08:00am 15.3 16.7 15.3 100 0.0 NNW 2 7 1 4 1008.2 1008.2 23.0
02/07:30am 15.4 16.0 15.4 100 0.0 SSE 6 11 3 6 1008.2 1008.2 23.0
02/07:00am 15.6 16.3 15.6 100 0.0 SSE 6 13 3 7 1008.2 1008.2 23.0
02/06:32am 15.5 16.0 15.5 100 0.0 ESE 7 22 4 12 1008.3 1008.3 23.0
02/06:30am 15.5 16.0 15.5 100 0.0 E 7 22 4 12 1008.4 1008.4 23.0
02/06:18am 15.7 15.5 15.7 100 0.0 ESE 11 20 6 11 1008.6 1008.6 22.8
02/06:14am 15.8 16.0 15.8 100 0.0 ESE 9 20 5 11 1008.7 1008.7 22.8
02/06:00am 16.0 15.9 16.0 100 0.0 SE 11 20 6 11 1008.7 1008.7 22.4
02/05:30am 16.2 17.1 16.2 100 0.0 ESE 6 15 3 8 1008.9 1008.9 20.2
02/05:00am 16.5 18.3 16.5 100 0.0 S 2 7 1 4 1009.3 1009.3 15.4
02/04:30am 16.4 18.2 16.4 100 0.0 SSE 2 6 1 3 1009.6 1009.6 11.4
02/04:00am 16.6 18.8 16.6 100 0.0 CALM 0 0 0 0 1010.5 1010.5 8.4
02/03:30am 16.7 18.9 16.5 99 0.1 CALM 0 0 0 0 1011.3 1011.3 6.4
02/03:00am 17.2 19.2 17.0 99 0.1 W 2 9 1 5 1012.0 1012.0 3.2
02/02:30am 17.5 19.6 17.2 98 0.2 WNW 2 7 1 4 1012.0 1012.0 1.2
02/02:27am 17.5 19.1 17.0 97 0.3 WNW 4 9 2 5 1012.1 1012.1 1.2
02/02:00am 17.7 19.4 17.1 96 0.4 WNW 4 9 2 5 1012.5 1012.5 0.2
02/01:30am 17.9 20.1 16.6 92 0.8 CALM 0 0 0 0 1012.3 1012.3 0.0
02/01:00am 17.9 19.9 16.1 89 1.1 CALM 0 0 0 0 1012.7 1012.7 0.0
02/12:30am 17.9 19.8 15.7 87 1.3 CALM 0 2 0 1 1013.1 1013.1 0.0
02/12:00am 18.3 20.1 15.4 83 1.7 CALM 0 6 0 3 1013.6 1013.6 0.0
 
Date/Time
EDT
Temp
°C
App
Temp
°C
Dew
Point
°C
Rel
Hum
%
Delta-T
°C
Wind Press
QNH
hPa
Press
MSL
hPa
Rain since
9am
mm
Dir  Spd
km/h
Gust
km/h
Spd
kts
Gust
kts
01/11:30pm 18.6 20.3 15.1 80 2.0 CALM 0 0 0 0 1013.7 1013.7 0.0
01/11:00pm 19.3 20.6 14.1 72 3.0 CALM 0 6 0 3 1014.1 1014.1 0.0
01/10:30pm 19.0 20.3 14.1 73 2.8 CALM 0 2 0 1 1014.1 1014.1 0.0
01/10:00pm 19.5 20.4 13.9 70 3.2 NNE 2 7 1 4 1014.3 1014.3 0.0
01/09:30pm 19.6 20.5 14.0 70 3.2 ESE 2 9 1 5 1014.4 1014.4 0.0
01/09:00pm 19.8 20.3 14.0 69 3.3 E 4 9 2 5 1014.6 1014.6 0.0
01/08:30pm 19.9 19.8 13.4 66 3.7 SE 6 9 3 5 1014.8 1014.8 0.0
01/08:00pm 20.2 20.3 12.7 62 4.2 SE 4 15 2 8 1014.5 1014.5 0.0
01/07:30pm 20.5 20.9 12.5 60 4.5 SE 2 9 1 5 1014.4 1014.4 0.0
01/07:00pm 21.3 20.7 12.2 56 5.1 SE 7 15 4 8 1014.2 1014.2 0.0
01/06:30pm 21.9 20.9 12.2 54 5.5 SE 9 17 5 9 1014.3 1014.3 0.0
01/06:00pm 22.2 20.6 11.6 51 5.9 SE 11 20 6 11 1014.4 1014.4 0.0
01/05:30pm 22.6 21.2 12.3 52 5.8 SSE 11 19 6 10 1014.4 1014.4 0.0
01/05:00pm 22.8 21.3 11.8 50 6.2 SSE 11 17 6 9 1014.5 1014.5 0.0
01/04:30pm 22.9 21.8 11.9 50 6.2 S 9 17 5 9 1014.6 1014.6 0.0
01/04:00pm 22.8 22.6 13.6 56 5.3 SSW 7 11 4 6 1014.7 1014.7 0.0
01/03:30pm 22.4 21.5 12.6 54 5.6 SSW 9 13 5 7 1014.8 1014.8 0.0
01/03:00pm 22.4 21.6 12.9 55 5.4 SW 9 15 5 8 1014.9 1014.9 0.0
01/02:30pm 22.6 21.6 12.3 52 5.8 SSW 9 15 5 8 1015.1 1015.1 0.0
01/02:00pm 21.8 20.9 12.6 56 5.2 SSW 9 15 5 8 1016.1 1016.1 0.0
01/01:30pm 21.3 20.5 13.0 59 4.7 SW 9 17 5 9 1016.4 1016.4 0.0
01/01:00pm 22.7 21.9 11.7 49 6.2 ESE 7 11 4 6 1016.6 1016.6 0.0
01/12:30pm 21.9 21.5 11.0 50 6.0 ENE 4 9 2 5 1017.1 1017.1 0.0
01/12:00pm 20.6 19.6 11.0 54 5.3 N 7 11 4 6 1017.5 1017.5 0.0
01/11:30am 19.5 18.6 10.8 57 4.7 NNE 6 9 3 5 1017.9 1017.9 0.0
01/11:00am 17.8 16.3 10.7 63 3.8 NE 9 13 5 7 1018.2 1018.2 0.0
01/10:30am 16.2 14.4 10.9 71 2.8 NNE 11 15 6 8 1018.4 1018.4 0.0
01/10:00am 14.9 13.5 10.9 77 2.1 NNE 9 13 5 7 1018.7 1018.7 0.0
01/09:30am 13.8 12.3 10.4 80 1.8 NNE 9 13 5 7 1018.8 1018.8 0.0
01/09:00am 12.5 10.8 9.9 84 1.3 NE 9 11 5 6 1019.3 1019.3 0.0
01/08:30am 11.9 11.2 10.0 88 1.0 N 4 9 2 5 1019.4 1019.4 0.0
01/08:00am 11.6 10.2 9.7 88 1.0 ESE 7 9 4 5 1018.9 1018.9 0.0
01/07:30am 11.2 11.1 9.6 90 0.8 CALM 0 0 0 0 1018.9 1018.9 0.0
01/07:00am 11.6 10.9 9.9 89 0.9 ENE 4 7 2 4 1018.5 1018.5 0.0
01/06:30am 11.8 10.8 10.2 90 0.8 N 6 9 3 5 1018.3 1018.3 0.0
01/06:00am 11.4 10.1 10.1 92 0.7 NE 7 11 4 6 1017.7 1017.7 0.0
01/05:30am 11.4 10.5 10.8 96 0.3 NE 6 7 3 4 1017.5 1017.5 0.0
01/05:00am 11.3 11.6 10.8 97 0.3 CALM 0 0 0 0 1017.6 1017.6 0.0
01/04:30am 11.5 11.8 10.9 96 0.3 CALM 0 0 0 0 1017.6 1017.6 0.0

Latest Capital City Observations: Canberra | Sydney | Melbourne | Brisbane | Adelaide | Perth | Hobart | Darwin

Other formats

Comma delimited format used in spreadsheet applications
http://www.bom.gov.au/fwo/IDV60901/IDV60901.95936.axf

JavaScript Object Notation format (JSON) in row-major order
http://www.bom.gov.au/fwo/IDV60901/IDV60901.95936.json

Data quality

Most of these data are generated automatically and are frequently updated. Quality checks on data are not normally performed. It is possible for incorrect values to appear. Refer to information at About Latest Weather Observations and please check the disclaimer before using these data.